Time;durP1;ratioP1;P1;durP2;ratioP2;P2;SDS_P1;SDS_P2;PMS_P1;PMS_P2;Temp;Humidity;BMP_temperature;BMP_pressure;BME280_temperature;BME280_humidity;BME280_pressure;Samples;Min_cycle;Max_cycle;Signal;HPM_P1;HPM_P2
2023/03/27 00:00:15;;;;;;;1.10;0.87;;;;;;;6.09;53.21;100721.53;4998959;28;97455;-78
2023/03/27 00:02:41;;;;;;;1.80;0.67;;;;;;;6.03;52.98;100724.88;4999009;28;97902;-77
2023/03/27 00:05:06;;;;;;;5.03;0.70;;;;;;;6.02;53.16;100756.16;4997228;28;97093;-77
2023/03/27 00:07:34;;;;;;;5.20;0.60;;;;;;;5.92;53.11;100729.31;5002645;28;97741;-77
2023/03/27 00:10:00;;;;;;;2.97;0.70;;;;;;;5.92;53.03;100760.09;4994374;28;97294;-77
2023/03/27 00:12:26;;;;;;;5.33;1.17;;;;;;;5.90;53.16;100743.41;4999919;28;97074;-77
2023/03/27 00:14:52;;;;;;;2.00;0.70;;;;;;;5.87;53.19;100760.72;4997026;28;97641;-77
2023/03/27 00:17:18;;;;;;;3.67;1.03;;;;;;;5.81;53.28;100748.88;4997273;28;97236;-77
2023/03/27 00:19:43;;;;;;;4.43;0.97;;;;;;;5.78;53.38;100757.22;4993866;28;100652;-78
2023/03/27 00:22:09;;;;;;;2.77;1.00;;;;;;;5.80;53.40;100749.31;4998895;28;99328;-77
2023/03/27 00:24:35;;;;;;;4.93;0.70;;;;;;;5.80;53.38;100765.69;5006068;28;97455;-77
2023/03/27 00:27:01;;;;;;;5.07;0.83;;;;;;;5.78;53.27;100768.91;5000375;28;97008;-76
2023/03/27 00:29:27;;;;;;;2.00;0.87;;;;;;;5.78;53.41;100765.41;4998318;27;97059;-77
2023/03/27 00:31:52;;;;;;;3.00;0.70;;;;;;;5.77;53.30;100772.81;4998241;28;100171;-77
2023/03/27 00:34:17;;;;;;;3.33;1.10;;;;;;;5.76;53.69;100779.50;4996720;28;97425;-78
2023/03/27 00:36:47;;;;;;;1.47;0.70;;;;;;;5.79;53.75;100761.44;4999086;28;97280;-77
2023/03/27 00:39:13;;;;;;;2.07;0.80;;;;;;;5.71;53.82;100771.16;4998344;28;100523;-77
2023/03/27 00:41:38;;;;;;;1.30;0.80;;;;;;;5.74;53.93;100775.72;4997375;28;97089;-77
2023/03/27 00:44:22;;;;;;;4.67;1.00;;;;;;;5.73;54.14;100790.56;4999921;28;96722;-77
2023/03/27 00:46:48;;;;;;;4.20;0.80;;;;;;;5.68;53.86;100783.00;5002802;28;97136;-77
2023/03/27 00:49:15;;;;;;;2.27;0.90;;;;;;;5.67;53.83;100793.16;4997901;28;97762;-77
2023/03/27 00:51:43;;;;;;;5.10;0.80;;;;;;;5.62;53.86;100796.50;4995758;28;96650;-77
2023/03/27 00:54:12;;;;;;;1.83;0.80;;;;;;;5.59;53.99;100793.91;4997791;28;97275;-77
2023/03/27 00:56:38;;;;;;;2.73;0.83;;;;;;;5.54;53.58;100792.56;4998312;28;97281;-77
2023/03/27 00:59:10;;;;;;;1.70;0.60;;;;;;;5.51;53.79;100815.28;4995325;28;96985;-77
2023/03/27 01:01:35;;;;;;;3.57;0.80;;;;;;;5.44;53.98;100821.00;4995532;28;96917;-77
2023/03/27 01:04:04;;;;;;;3.80;1.13;;;;;;;5.40;54.11;100834.06;4998660;28;97301;-77
2023/03/27 01:06:31;;;;;;;3.93;0.90;;;;;;;5.39;54.19;100821.63;4998677;27;97113;-77
2023/03/27 01:08:56;;;;;;;0.83;0.40;;;;;;;5.37;54.19;100815.09;5000065;28;97759;-77
2023/03/27 01:11:45;;;;;;;2.20;0.63;;;;;;;5.34;54.62;100824.94;4996754;28;100342;-76
2023/03/27 01:14:32;;;;;;;4.07;0.90;;;;;;;5.27;54.36;100822.50;4994615;28;97168;-77
2023/03/27 01:17:34;;;;;;;1.63;0.70;;;;;;;5.19;54.71;100819.31;5002808;28;97544;-77
2023/03/27 01:20:29;;;;;;;3.53;0.53;;;;;;;5.10;54.71;100815.81;4996732;28;97897;-76
2023/03/27 01:23:16;;;;;;;4.80;0.73;;;;;;;5.06;54.63;100817.91;4998589;28;98011;-77
2023/03/27 01:26:09;;;;;;;0.70;0.47;;;;;;;5.03;54.74;100818.81;4997898;28;97593;-77
2023/03/27 01:29:05;;;;;;;1.10;0.77;;;;;;;4.98;54.64;100833.03;4994042;28;97308;-76
2023/03/27 01:32:03;;;;;;;2.97;0.60;;;;;;;4.93;54.34;100831.66;4991439;28;100577;-77
2023/03/27 01:34:31;;;;;;;4.30;0.60;;;;;;;4.90;54.55;100837.22;4996212;28;101972;-77
2023/03/27 01:37:20;;;;;;;0.97;0.40;;;;;;;4.85;54.68;100832.38;5004906;28;97073;-76
2023/03/27 01:40:10;;;;;;;1.87;0.60;;;;;;;4.76;54.83;100833.06;5000147;28;97326;-77
2023/03/27 01:42:58;;;;;;;1.47;0.63;;;;;;;4.77;54.58;100847.47;5001861;28;99221;-76
2023/03/27 01:45:38;;;;;;;1.27;0.47;;;;;;;4.74;54.71;100846.41;4994636;28;97495;-77
2023/03/27 01:48:18;;;;;;;2.70;0.70;;;;;;;4.77;55.02;100859.13;4995170;28;96673;-77
2023/03/27 01:50:47;;;;;;;1.07;0.60;;;;;;;4.79;55.02;100851.28;4999311;28;97273;-76
2023/03/27 01:53:19;;;;;;;3.90;0.70;;;;;;;4.84;55.24;100850.69;4996438;28;99079;-77
2023/03/27 01:55:51;;;;;;;3.37;0.73;;;;;;;4.83;55.07;100856.56;4997674;28;98972;-77
2023/03/27 01:58:22;;;;;;;1.53;0.77;;;;;;;4.85;55.37;100878.72;5001805;28;96983;-77
2023/03/27 02:00:52;;;;;;;3.37;0.73;;;;;;;4.88;55.24;100878.56;4995803;28;96886;-77
2023/03/27 02:03:29;;;;;;;5.50;0.50;;;;;;;4.91;54.93;100887.81;4997074;28;97250;-75
2023/03/27 02:06:04;;;;;;;3.53;0.80;;;;;;;4.91;54.86;100874.19;4999925;28;99220;-77
2023/03/27 02:08:37;;;;;;;0.80;0.60;;;;;;;4.96;55.31;100885.25;4997021;28;97382;-77
2023/03/27 02:11:03;;;;;;;1.40;0.70;;;;;;;4.95;55.02;100869.38;4994864;28;97486;-76
2023/03/27 02:13:39;;;;;;;9.13;0.90;;;;;;;5.01;54.83;100895.59;5001153;28;97734;-77
2023/03/27 02:16:08;;;;;;;0.83;0.50;;;;;;;5.02;54.89;100888.19;5001613;28;99007;-77
2023/03/27 02:18:37;;;;;;;1.03;0.50;;;;;;;5.01;55.04;100884.69;4995390;28;97346;-76
2023/03/27 02:21:03;;;;;;;0.80;0.40;;;;;;;5.01;55.07;100889.38;5003747;28;97772;-76
2023/03/27 02:23:31;;;;;;;3.17;0.50;;;;;;;5.03;54.95;100884.22;5002647;28;97376;-77
2023/03/27 02:25:58;;;;;;;1.77;0.70;;;;;;;5.01;55.19;100892.09;4998732;28;97538;-77
2023/03/27 02:28:51;;;;;;;4.13;0.83;;;;;;;4.98;55.91;100891.03;4998275;28;97175;-77
2023/03/27 02:31:33;;;;;;;0.93;0.50;;;;;;;4.98;55.83;100898.47;4998857;28;97701;-77
2023/03/27 02:34:13;;;;;;;3.43;0.73;;;;;;;4.96;55.49;100890.72;4999862;28;97207;-77
2023/03/27 02:36:54;;;;;;;4.23;0.60;;;;;;;4.96;55.22;100900.84;5006065;28;97691;-76
2023/03/27 02:39:32;;;;;;;1.20;0.87;;;;;;;4.90;55.65;100902.66;4998168;28;97160;-77
2023/03/27 02:42:11;;;;;;;1.80;0.60;;;;;;;4.90;55.53;100919.00;5000092;28;97126;-77
2023/03/27 02:44:50;;;;;;;2.20;0.70;;;;;;;4.90;55.47;100924.47;4999118;28;98180;-77
2023/03/27 02:47:24;;;;;;;1.77;0.60;;;;;;;4.89;55.42;100917.50;4995882;28;96852;-77
2023/03/27 02:50:00;;;;;;;4.10;1.13;;;;;;;4.88;55.51;100918.69;4999243;28;97308;-77
2023/03/27 02:52:32;;;;;;;0.70;0.53;;;;;;;4.86;55.37;100918.38;5006486;28;97380;-77
2023/03/27 02:55:06;;;;;;;1.70;0.53;;;;;;;4.86;55.50;100919.16;5000037;28;98188;-77
2023/03/27 02:57:38;;;;;;;2.83;0.60;;;;;;;4.86;55.37;100930.06;5000562;28;98551;-77
2023/03/27 03:00:24;;;;;;;3.90;0.97;;;;;;;4.84;55.53;100923.53;5019694;27;97400;-76
2023/03/27 03:02:59;;;;;;;1.47;1.17;;;;;;;4.76;55.56;100925.00;5003320;28;97423;-76
2023/03/27 03:05:25;;;;;;;1.40;0.80;;;;;;;4.76;55.42;100935.91;5003388;28;97394;-77
2023/03/27 03:07:53;;;;;;;1.67;0.60;;;;;;;4.75;55.64;100932.41;4997548;28;97221;-77
2023/03/27 03:10:18;;;;;;;2.63;0.60;;;;;;;4.74;55.47;100930.88;5001189;28;97575;-77
2023/03/27 03:12:44;;;;;;;1.83;0.40;;;;;;;4.72;55.39;100929.81;5001620;28;97179;-77
2023/03/27 03:15:10;;;;;;;4.23;0.70;;;;;;;4.67;55.68;100938.56;5001529;28;104484;-76
2023/03/27 03:17:35;;;;;;;8.80;1.07;;;;;;;4.63;55.67;100935.94;4999876;28;100067;-75
2023/03/27 03:20:00;;;;;;;0.60;0.60;;;;;;;4.60;55.82;100958.66;5004006;28;96787;-76
2023/03/27 03:22:26;;;;;;;1.17;0.70;;;;;;;4.59;55.79;100945.47;5001008;28;97137;-77
2023/03/27 03:24:51;;;;;;;1.10;0.50;;;;;;;4.54;55.91;100942.09;5000412;28;97045;-77
2023/03/27 03:27:19;;;;;;;1.87;0.70;;;;;;;4.54;55.94;100965.88;4997783;28;97877;-77
2023/03/27 03:29:45;;;;;;;1.43;0.70;;;;;;;4.56;56.06;100960.75;4994534;28;96759;-77
2023/03/27 03:32:11;;;;;;;1.37;0.57;;;;;;;4.57;55.92;100968.47;5006187;28;97105;-77
2023/03/27 03:34:37;;;;;;;2.60;0.80;;;;;;;4.54;55.84;100980.25;5001703;28;97375;-77
2023/03/27 03:37:02;;;;;;;2.50;0.60;;;;;;;4.54;56.06;100974.03;4996597;28;97630;-76
2023/03/27 03:39:28;;;;;;;3.43;0.80;;;;;;;4.54;56.10;100966.63;5000388;28;97512;-76
2023/03/27 03:41:53;;;;;;;1.40;0.63;;;;;;;4.56;56.24;100966.19;4994097;28;97079;-77
2023/03/27 03:44:19;;;;;;;2.73;0.70;;;;;;;4.59;56.28;100984.34;4997781;28;97010;-77
2023/03/27 03:46:44;;;;;;;5.20;0.70;;;;;;;4.63;56.38;100989.69;4996884;28;99091;-77
2023/03/27 03:49:10;;;;;;;3.33;0.70;;;;;;;4.66;56.22;100983.34;4996121;28;97514;-77
2023/03/27 03:51:36;;;;;;;1.60;0.60;;;;;;;4.73;56.09;101002.19;4999845;28;97286;-77
2023/03/27 03:54:04;;;;;;;0.83;0.50;;;;;;;4.78;56.17;100994.22;4999526;28;100355;-77
2023/03/27 03:56:30;;;;;;;2.10;0.90;;;;;;;4.81;56.19;101003.44;4998643;28;97182;-76
2023/03/27 03:58:56;;;;;;;4.87;0.83;;;;;;;4.83;56.00;100992.84;5005389;28;96811;-76
2023/03/27 04:01:22;;;;;;;6.80;0.77;;;;;;;4.87;56.13;100993.50;4998247;28;97206;-76
2023/03/27 04:03:48;;;;;;;2.20;0.50;;;;;;;4.83;56.25;100995.59;4996968;28;97806;-77
2023/03/27 04:06:16;;;;;;;2.10;0.57;;;;;;;4.83;56.22;101001.78;4999068;28;97431;-77
2023/03/27 04:08:42;;;;;;;1.90;0.90;;;;;;;4.78;56.08;100999.66;5000939;28;97471;-77
2023/03/27 04:11:08;;;;;;;2.77;0.70;;;;;;;4.77;56.54;101005.53;4998139;28;97297;-77
2023/03/27 04:13:33;;;;;;;1.80;0.70;;;;;;;4.76;56.47;101004.03;4997219;28;97736;-77
2023/03/27 04:16:00;;;;;;;1.43;0.70;;;;;;;4.73;56.27;101007.63;4997963;28;97652;-77
2023/03/27 04:18:31;;;;;;;3.90;0.67;;;;;;;4.70;56.16;101008.50;4996662;28;97431;-77
2023/03/27 04:21:00;;;;;;;2.10;0.70;;;;;;;4.72;56.42;101001.41;4996830;28;97324;-77
2023/03/27 04:23:29;;;;;;;2.00;0.70;;;;;;;4.71;56.56;101016.25;4997630;28;97334;-77
2023/03/27 04:26:02;;;;;;;2.33;0.97;;;;;;;4.67;56.61;101025.75;4997690;28;97489;-76
2023/03/27 04:28:33;;;;;;;3.47;1.10;;;;;;;4.62;56.70;101015.41;5002924;28;97208;-76
2023/03/27 04:31:05;;;;;;;1.43;0.83;;;;;;;4.59;56.66;101022.50;4997318;28;97552;-76
2023/03/27 04:33:33;;;;;;;9.57;2.10;;;;;;;4.57;56.54;101024.91;4996813;28;96907;-77
2023/03/27 04:35:59;;;;;;;0.80;0.73;;;;;;;4.57;56.72;101043.97;4997511;28;100580;-77
2023/03/27 04:38:26;;;;;;;1.70;0.63;;;;;;;4.54;56.68;101040.16;4996407;28;96659;-76
2023/03/27 04:40:52;;;;;;;3.37;0.80;;;;;;;4.57;56.50;101038.53;4996160;28;98405;-77
2023/03/27 04:43:18;;;;;;;5.17;0.97;;;;;;;4.56;56.50;101059.56;4997087;28;97266;-77
2023/03/27 04:45:47;;;;;;;1.77;1.00;;;;;;;4.59;56.76;101041.56;4994438;28;97253;-76
2023/03/27 04:48:13;;;;;;;1.77;1.03;;;;;;;4.62;56.69;101045.38;4996733;28;97177;-76
2023/03/27 04:50:39;;;;;;;2.77;0.50;;;;;;;4.63;56.98;101061.28;4991704;28;97488;-77
2023/03/27 04:53:05;;;;;;;4.83;0.90;;;;;;;4.63;56.41;101053.13;4995412;28;97293;-76
2023/03/27 04:55:36;;;;;;;0.93;0.73;;;;;;;4.63;56.67;101066.00;4997530;28;100988;-76
2023/03/27 04:58:04;;;;;;;5.27;0.70;;;;;;;4.66;56.74;101073.28;4995357;28;97329;-76
2023/03/27 05:00:29;;;;;;;3.07;0.67;;;;;;;4.67;56.38;101067.41;4995678;28;97225;-76
2023/03/27 05:02:55;;;;;;;2.30;0.70;;;;;;;4.64;56.35;101071.00;4990404;28;97437;-76
2023/03/27 05:05:20;;;;;;;2.37;0.90;;;;;;;4.56;56.75;101091.53;4995420;28;97077;-77
2023/03/27 05:07:47;;;;;;;2.70;0.70;;;;;;;4.53;56.49;101081.50;4996452;28;97155;-77
2023/03/27 05:10:16;;;;;;;9.83;0.73;;;;;;;4.51;56.76;101081.16;4995199;28;97096;-76
2023/03/27 05:12:45;;;;;;;2.03;0.80;;;;;;;4.51;56.89;101089.34;4993145;28;97467;-77
2023/03/27 05:15:11;;;;;;;9.43;1.20;;;;;;;4.48;57.07;101076.59;4998675;28;98762;-77
2023/03/27 05:17:42;;;;;;;1.50;0.80;;;;;;;4.46;57.07;101090.66;4995184;28;97033;-77
2023/03/27 05:20:13;;;;;;;2.50;0.80;;;;;;;4.43;57.05;101099.69;4994968;28;98388;-77
2023/03/27 05:22:40;;;;;;;2.43;0.83;;;;;;;4.42;57.32;101087.28;4995040;28;99844;-77
2023/03/27 05:25:05;;;;;;;7.10;1.10;;;;;;;4.41;57.13;101095.91;4994654;28;97124;-76
2023/03/27 05:27:31;;;;;;;2.77;0.80;;;;;;;4.35;57.44;101084.03;4999487;27;97248;-77
2023/03/27 05:29:56;;;;;;;2.87;0.80;;;;;;;4.37;57.32;101090.56;4998451;28;97355;-76
2023/03/27 05:32:22;;;;;;;1.10;0.70;;;;;;;4.39;56.94;101098.31;4996118;28;97581;-76
2023/03/27 05:34:49;;;;;;;2.83;0.83;;;;;;;4.39;57.13;101098.31;4997858;28;98463;-77
2023/03/27 05:37:16;;;;;;;1.27;0.90;;;;;;;4.37;57.26;101100.69;4990707;28;96797;-76
2023/03/27 05:39:45;;;;;;;2.40;0.80;;;;;;;4.32;56.91;101110.19;4994250;28;97285;-76
2023/03/27 05:42:12;;;;;;;3.23;1.10;;;;;;;4.34;57.54;101115.19;4999321;28;97298;-76
2023/03/27 05:44:38;;;;;;;3.47;0.93;;;;;;;4.35;57.21;101109.31;5000982;28;97571;-77
2023/03/27 05:47:03;;;;;;;1.33;0.70;;;;;;;4.32;57.17;101123.06;4994300;28;97371;-76
2023/03/27 05:49:29;;;;;;;4.00;0.97;;;;;;;4.34;57.24;101135.03;4995780;28;97081;-77
2023/03/27 05:51:54;;;;;;;1.43;0.77;;;;;;;4.33;57.53;101128.03;4999211;28;100291;-76
2023/03/27 05:54:20;;;;;;;2.93;1.10;;;;;;;4.34;57.25;101132.31;4996430;28;96855;-76
2023/03/27 05:56:45;;;;;;;1.23;0.83;;;;;;;4.34;57.42;101107.81;4998200;28;97113;-75
2023/03/27 05:59:10;;;;;;;1.70;0.80;;;;;;;4.42;57.59;101119.22;4992322;28;96867;-77
2023/03/27 06:01:36;;;;;;;2.20;0.80;;;;;;;4.42;57.52;101119.97;4995005;28;101898;-76
2023/03/27 06:04:03;;;;;;;3.50;0.70;;;;;;;4.43;57.14;101135.09;4994020;28;96780;-76
2023/03/27 06:06:28;;;;;;;5.40;0.80;;;;;;;4.41;57.64;101125.88;4994988;28;96880;-77
2023/03/27 06:08:54;;;;;;;2.87;0.77;;;;;;;4.43;57.47;101129.66;4995320;28;96924;-77
2023/03/27 06:11:20;;;;;;;3.13;0.80;;;;;;;4.51;57.60;101127.47;4992603;28;97799;-76
2023/03/27 06:13:45;;;;;;;1.97;0.73;;;;;;;4.53;57.74;101130.53;4993692;28;97519;-77
2023/03/27 06:16:11;;;;;;;1.83;0.90;;;;;;;4.57;57.81;101142.84;4996140;28;97215;-77
2023/03/27 06:18:36;;;;;;;3.50;1.00;;;;;;;4.62;57.59;101130.63;4997511;28;97418;-77
2023/03/27 06:21:02;;;;;;;1.27;1.10;;;;;;;4.70;57.66;101131.13;4996182;28;100023;-77
2023/03/27 06:23:27;;;;;;;5.77;1.00;;;;;;;4.87;57.98;101148.88;4993748;28;97846;-76
2023/03/27 06:25:53;;;;;;;4.93;1.20;;;;;;;5.10;57.96;101167.56;4994118;28;97007;-76
2023/03/27 06:28:19;;;;;;;7.73;1.47;;;;;;;5.25;57.72;101174.03;4993578;28;97399;-76
2023/03/27 06:30:46;;;;;;;3.50;2.03;;;;;;;5.37;57.55;101169.75;4994884;28;97392;-77
2023/03/27 06:33:14;;;;;;;2.07;1.00;;;;;;;5.40;57.45;101169.63;4989878;28;97391;-76
2023/03/27 06:35:40;;;;;;;3.07;0.60;;;;;;;5.44;57.42;101180.41;4993431;28;96887;-76
2023/03/27 06:38:06;;;;;;;3.10;0.80;;;;;;;5.48;57.57;101179.09;5000949;28;97394;-75
2023/03/27 06:40:34;;;;;;;1.10;0.80;;;;;;;5.51;57.32;101180.91;4995046;27;97493;-77
2023/03/27 06:43:06;;;;;;;1.20;0.50;;;;;;;5.52;57.70;101187.91;4993195;28;98751;-77
2023/03/27 06:45:43;;;;;;;1.07;0.53;;;;;;;5.49;57.86;101188.78;5003604;28;96818;-76
2023/03/27 06:48:09;;;;;;;1.53;0.67;;;;;;;5.50;57.55;101195.78;4995327;28;96663;-76
2023/03/27 06:50:35;;;;;;;1.93;1.03;;;;;;;5.50;57.98;101201.22;4993441;28;97624;-76
2023/03/27 06:53:01;;;;;;;1.23;1.13;;;;;;;5.54;57.67;101196.41;4996646;28;100124;-76
2023/03/27 06:55:28;;;;;;;1.57;0.90;;;;;;;5.57;57.73;101211.13;4994745;28;97110;-77
2023/03/27 06:57:55;;;;;;;2.20;0.90;;;;;;;5.61;57.74;101220.72;5001024;28;97192;-76
2023/03/27 07:00:24;;;;;;;1.40;0.80;;;;;;;5.65;57.63;101215.13;4993818;28;98076;-77
2023/03/27 07:02:54;;;;;;;1.07;0.60;;;;;;;5.68;57.97;101206.81;5009150;27;99448;-76
2023/03/27 07:05:20;;;;;;;1.80;1.03;;;;;;;5.70;57.94;101211.84;5000318;28;96749;-76
2023/03/27 07:07:45;;;;;;;2.27;0.70;;;;;;;5.75;57.77;101216.69;4995131;28;97076;-76
2023/03/27 07:10:12;;;;;;;0.70;0.70;;;;;;;5.76;57.71;101227.19;4994765;28;98610;-76
2023/03/27 07:12:38;;;;;;;3.53;0.63;;;;;;;5.82;57.83;101219.94;4994585;28;98092;-76
2023/03/27 07:15:05;;;;;;;3.93;0.80;;;;;;;5.87;57.66;101219.41;4995754;28;97415;-76
2023/03/27 07:17:33;;;;;;;5.23;0.70;;;;;;;5.90;57.62;101221.25;4995733;28;97473;-76
2023/03/27 07:19:59;;;;;;;3.20;1.13;;;;;;;5.95;57.82;101225.38;4998287;28;100235;-77
2023/03/27 07:22:25;;;;;;;1.67;0.87;;;;;;;6.03;57.80;101230.13;4998104;28;97890;-76
2023/03/27 07:24:50;;;;;;;2.60;1.00;;;;;;;6.10;57.75;101233.78;4997067;28;97132;-77
2023/03/27 07:27:15;;;;;;;0.70;0.60;;;;;;;6.16;57.56;101240.22;5000323;28;96830;-77
2023/03/27 07:29:41;;;;;;;1.77;0.90;;;;;;;6.22;57.56;101232.94;4998899;28;100687;-77
2023/03/27 07:32:07;;;;;;;2.33;1.20;;;;;;;6.29;57.47;101243.63;4995978;28;97284;-76
2023/03/27 07:34:32;;;;;;;2.50;0.90;;;;;;;6.39;57.49;101253.38;4995808;28;96964;-77
2023/03/27 07:36:58;;;;;;;3.83;1.47;;;;;;;6.47;57.51;101233.53;5003757;28;97160;-77
2023/03/27 07:39:24;;;;;;;1.60;1.00;;;;;;;6.59;57.72;101251.81;4995578;28;97051;-76
2023/03/27 07:41:50;;;;;;;4.10;1.27;;;;;;;6.73;57.35;101237.56;5000077;28;100270;-77
2023/03/27 07:44:17;;;;;;;5.70;2.27;;;;;;;6.82;57.13;101231.34;4998367;28;97013;-77
2023/03/27 07:46:42;;;;;;;8.80;1.70;;;;;;;6.79;56.79;101233.03;4993782;28;97289;-77
2023/03/27 07:49:08;;;;;;;4.90;0.90;;;;;;;6.88;57.33;101254.16;5001076;28;97958;-76
2023/03/27 07:51:34;;;;;;;5.20;0.97;;;;;;;7.03;57.17;101257.88;4995691;28;97136;-76
2023/03/27 07:54:03;;;;;;;3.47;0.90;;;;;;;7.07;56.72;101258.47;4997505;28;97024;-77
2023/03/27 07:56:32;;;;;;;2.00;0.90;;;;;;;7.13;56.62;101272.31;5000317;28;97296;-77
2023/03/27 07:58:58;;;;;;;2.67;0.90;;;;;;;7.15;56.76;101248.00;4997527;28;97366;-77
2023/03/27 08:01:24;;;;;;;3.37;0.83;;;;;;;7.20;56.90;101263.81;4994857;28;99003;-77
2023/03/27 08:03:51;;;;;;;3.60;0.90;;;;;;;7.29;57.00;101253.66;4995125;28;96731;-77
2023/03/27 08:06:17;;;;;;;5.93;0.90;;;;;;;7.32;56.94;101254.69;4995952;28;97278;-77
2023/03/27 08:08:42;;;;;;;1.83;0.93;;;;;;;7.34;56.66;101258.50;4996049;28;97710;-76
2023/03/27 08:11:08;;;;;;;1.70;0.80;;;;;;;7.41;56.55;101257.44;4996045;28;96663;-77
2023/03/27 08:13:33;;;;;;;0.60;0.50;;;;;;;7.49;56.53;101266.91;4994383;28;96971;-77
2023/03/27 08:16:14;;;;;;;0.63;0.47;;;;;;;7.54;55.90;101269.78;4994699;28;96958;-77
2023/03/27 08:18:40;;;;;;;0.50;0.50;;;;;;;7.57;56.24;101262.63;4999581;28;99520;-77
2023/03/27 08:21:07;;;;;;;1.80;0.73;;;;;;;7.62;56.30;101253.81;4997128;28;97380;-77
2023/03/27 08:23:34;;;;;;;1.73;0.87;;;;;;;7.70;56.11;101263.25;4996094;28;97037;-77
2023/03/27 08:26:00;;;;;;;2.13;0.50;;;;;;;7.71;56.26;101261.28;4996842;28;97451;-77
2023/03/27 08:28:27;;;;;;;1.23;0.50;;;;;;;7.80;56.57;101270.22;4997002;28;98183;-77
2023/03/27 08:30:53;;;;;;;3.70;1.10;;;;;;;7.87;56.34;101258.19;4993410;28;96880;-77
2023/03/27 08:33:18;;;;;;;0.60;0.57;;;;;;;7.97;56.02;101257.72;4996893;28;97305;-77
2023/03/27 08:35:47;;;;;;;1.17;0.60;;;;;;;8.08;56.08;101273.72;4996969;28;97344;-76
2023/03/27 08:38:13;;;;;;;1.90;0.80;;;;;;;8.17;55.62;101273.66;4993965;28;100341;-77
2023/03/27 08:40:40;;;;;;;1.17;0.63;;;;;;;8.36;55.96;101283.41;4991699;28;99245;-77
2023/03/27 08:43:12;;;;;;;1.83;0.93;;;;;;;8.63;55.30;101271.56;4996638;28;97038;-77
2023/03/27 08:45:45;;;;;;;1.53;0.80;;;;;;;8.97;55.14;101274.63;4996848;28;97303;-77
2023/03/27 08:48:20;;;;;;;2.50;0.53;;;;;;;9.12;54.19;101293.16;4996746;28;102405;-75
2023/03/27 08:51:03;;;;;;;5.97;0.90;;;;;;;9.25;53.67;101280.72;4994775;28;97271;-77
2023/03/27 08:53:49;;;;;;;7.23;0.80;;;;;;;9.26;54.30;101297.94;4995177;28;97646;-77
2023/03/27 08:56:17;;;;;;;1.93;0.60;;;;;;;9.32;54.25;101301.56;4995300;28;97704;-77
2023/03/27 08:58:44;;;;;;;1.70;0.70;;;;;;;9.45;54.23;101307.59;4995002;28;97016;-77
2023/03/27 09:01:21;;;;;;;3.07;0.97;;;;;;;9.37;52.87;101307.16;4994357;28;97736;-78
2023/03/27 09:04:03;;;;;;;2.70;1.10;;;;;;;9.21;52.42;101312.31;4998617;28;97288;-77
2023/03/27 09:06:41;;;;;;;3.67;1.03;;;;;;;9.14;53.50;101307.16;4994435;28;97132;-78
2023/03/27 09:09:25;;;;;;;1.37;0.77;;;;;;;9.03;54.08;101316.69;4991248;28;100378;-77
2023/03/27 09:12:25;;;;;;;0.80;0.80;;;;;;;9.24;53.54;101308.66;4994689;28;97048;-77
2023/03/27 09:15:03;;;;;;;2.60;1.00;;;;;;;9.38;53.02;101324.41;4994801;28;96804;-77
2023/03/27 09:17:36;;;;;;;4.17;1.00;;;;;;;9.58;54.00;101305.34;4995837;28;97206;-77
2023/03/27 09:20:06;;;;;;;0.70;0.50;;;;;;;9.78;54.24;101311.00;4997104;28;100369;-77
2023/03/27 09:22:42;;;;;;;1.63;0.67;;;;;;;10.08;54.05;101307.06;4994960;28;97743;-78
2023/03/27 09:25:35;;;;;;;0.73;0.60;;;;;;;10.34;53.04;101301.78;5000993;28;96780;-77
2023/03/27 09:28:02;;;;;;;3.20;0.70;;;;;;;10.47;53.43;101316.78;4995495;28;96933;-78
2023/03/27 09:30:31;;;;;;;1.20;0.60;;;;;;;10.51;53.16;101311.06;4996056;28;99748;-77
2023/03/27 09:33:02;;;;;;;1.77;0.60;;;;;;;10.37;52.63;101328.34;4993173;28;99994;-77
2023/03/27 09:35:28;;;;;;;0.93;0.50;;;;;;;9.89;52.72;101330.47;4994701;28;97054;-78
2023/03/27 09:37:57;;;;;;;2.37;0.63;;;;;;;9.56;53.31;101319.56;4995317;28;97365;-77
2023/03/27 09:40:33;;;;;;;2.93;0.70;;;;;;;9.36;53.45;101329.59;4993613;28;98116;-77
2023/03/27 09:43:15;;;;;;;1.37;1.27;;;;;;;9.31;53.98;101324.75;4995577;28;98766;-78
2023/03/27 09:45:41;;;;;;;1.27;0.80;;;;;;;9.66;54.56;101328.47;4992953;28;96789;-77
2023/03/27 09:48:15;;;;;;;2.30;0.60;;;;;;;9.86;53.44;101322.38;4994204;28;97288;-77
2023/03/27 09:50:43;;;;;;;1.47;0.70;;;;;;;9.85;53.49;101318.13;4993480;28;100061;-78
2023/03/27 09:53:22;;;;;;;2.63;0.70;;;;;;;9.94;53.92;101313.28;4995976;28;97210;-78
2023/03/27 09:55:58;;;;;;;1.10;0.50;;;;;;;10.23;54.02;101313.38;4992716;28;97702;-77
2023/03/27 09:58:29;;;;;;;1.80;0.60;;;;;;;10.43;53.16;101321.72;4992623;28;97391;-77
2023/03/27 10:01:12;;;;;;;1.97;0.60;;;;;;;10.32;52.70;101318.78;4993450;28;97647;-78
2023/03/27 10:03:58;;;;;;;3.70;0.70;;;;;;;10.29;52.17;101318.94;4994425;28;97267;-77
2023/03/27 10:06:28;;;;;;;0.93;0.70;;;;;;;10.53;53.09;101309.38;4995410;28;97414;-77
2023/03/27 10:09:05;;;;;;;1.17;0.63;;;;;;;10.88;52.95;101317.66;4992657;28;96975;-77
2023/03/27 10:11:33;;;;;;;3.73;0.87;;;;;;;11.04;51.93;101310.91;4989600;28;98488;-78
2023/03/27 10:14:00;;;;;;;2.90;0.77;;;;;;;11.04;51.84;101319.91;4992608;28;98552;-75
2023/03/27 10:16:27;;;;;;;1.23;0.77;;;;;;;10.90;51.56;101323.44;4995722;28;98478;-77
2023/03/27 10:18:56;;;;;;;3.90;0.87;;;;;;;10.52;50.78;101346.38;4993349;27;97445;-78
2023/03/27 10:21:32;;;;;;;2.80;1.20;;;;;;;10.17;50.86;101359.25;4990883;28;97521;-77
2023/03/27 10:24:01;;;;;;;1.73;0.50;;;;;;;9.62;51.76;101391.09;4994529;27;100217;-78
2023/03/27 10:26:30;;;;;;;3.30;0.60;;;;;;;8.99;52.64;101392.16;4994723;28;96971;-80
2023/03/27 10:29:05;;;;;;;3.03;0.60;;;;;;;8.49;53.56;101396.41;4993819;28;97232;-79
2023/03/27 10:31:39;;;;;;;0.40;0.40;;;;;;;8.20;54.16;101412.53;4991497;28;100671;-79
2023/03/27 10:34:25;;;;;;;0.40;0.30;;;;;;;8.04;54.54;101394.41;4994401;28;96851;-77
2023/03/27 10:36:54;;;;;;;1.00;0.40;;;;;;;8.00;54.94;101388.31;4994583;28;97884;-78
2023/03/27 10:39:24;;;;;;;1.90;0.40;;;;;;;8.09;55.39;101395.78;4995678;28;97465;-78
2023/03/27 10:41:50;;;;;;;0.80;0.60;;;;;;;8.28;55.64;101389.88;4993664;28;99365;-77
2023/03/27 10:44:19;;;;;;;2.00;0.40;;;;;;;8.55;55.26;101389.09;4995295;28;97082;-78
2023/03/27 10:46:45;;;;;;;0.63;0.63;;;;;;;8.72;54.95;101397.72;4994562;28;96849;-78
2023/03/27 10:49:37;;;;;;;0.70;0.60;;;;;;;8.84;55.68;101369.34;4996127;28;96846;-79
2023/03/27 10:52:14;;;;;;;0.70;0.40;;;;;;;9.02;55.62;101372.78;4998173;28;97609;-78
2023/03/27 10:55:06;;;;;;;0.70;0.50;;;;;;;8.91;54.87;101375.25;5000737;28;100004;-78
2023/03/27 10:57:33;;;;;;;0.70;0.50;;;;;;;8.97;55.33;101381.66;4998250;28;97877;-79
2023/03/27 11:00:18;;;;;;;1.00;0.80;;;;;;;9.02;55.77;101385.75;4992488;28;97167;-78
2023/03/27 11:02:52;;;;;;;1.23;0.63;;;;;;;9.00;55.60;101379.94;4994853;28;96817;-79
2023/03/27 11:05:26;;;;;;;0.90;0.70;;;;;;;9.14;55.76;101384.78;4996914;28;97139;-78
2023/03/27 11:08:01;;;;;;;1.10;0.60;;;;;;;9.30;55.56;101400.13;4994934;28;96803;-77
2023/03/27 11:10:40;;;;;;;3.90;0.50;;;;;;;9.61;56.03;101375.84;5001901;28;96784;-78
2023/03/27 11:13:26;;;;;;;1.27;0.60;;;;;;;10.01;55.44;101370.66;4994941;28;98290;-78
2023/03/27 11:16:10;;;;;;;1.70;0.80;;;;;;;10.42;55.06;101366.94;4995042;28;99172;-78
2023/03/27 11:18:43;;;;;;;0.50;0.40;;;;;;;10.77;54.09;101374.56;4997001;28;97044;-78
2023/03/27 11:21:15;;;;;;;0.50;0.40;;;;;;;11.07;53.56;101367.78;4996112;28;97103;-78
2023/03/27 11:23:58;;;;;;;3.43;0.80;;;;;;;11.09;52.40;101373.56;4995636;28;97571;-77
2023/03/27 11:26:53;;;;;;;1.40;0.67;;;;;;;10.97;52.06;101358.09;4997196;28;97863;-78
2023/03/27 11:29:24;;;;;;;0.53;0.50;;;;;;;11.13;53.41;101363.09;5003109;28;97900;-77
2023/03/27 11:31:55;;;;;;;1.33;0.73;;;;;;;11.62;52.61;101371.28;4998077;28;97214;-77
2023/03/27 11:34:41;;;;;;;2.30;0.60;;;;;;;11.93;48.32;101370.69;4994549;28;100354;-77
2023/03/27 11:37:19;;;;;;;2.60;0.70;;;;;;;12.39;51.16;101365.91;4994581;28;99027;-77
2023/03/27 11:39:52;;;;;;;1.53;0.60;;;;;;;12.74;51.38;101374.78;5012452;27;97758;-77
2023/03/27 11:42:30;;;;;;;0.77;0.50;;;;;;;13.16;50.39;101367.81;4995680;28;96997;-77
2023/03/27 11:44:55;;;;;;;0.60;0.50;;;;;;;13.23;50.53;101373.66;4995658;28;99381;-78
2023/03/27 11:47:21;;;;;;;1.17;0.50;;;;;;;13.30;50.81;101367.66;4997774;28;100229;-78